メインページ
METAR-TAF:

METAR-TAF

空港 :

ブルネイ国際空港

ブルネイ, ブルネイ

緯度: 04-56N, 経度: 114-56E, 海抜: 22m

現時点の気象観測

当レポートは49分前の12:30(UTC)に作成
西の風 2kt
気温 29°C
湿度 94%
気圧 1009 hPa
視程10km以上
高度1400ftの雲は散在している
高度14000ftの千切れ雲あり

METAR: WBSB 241230Z 26002KT 9999 SCT014 BKN140 29/28 Q1009 NOSIG

時間: 21:19 (13:19 UTC)

予報

当レポートは2時間19分前の11:00(UTC)に作成
予報は24日の 12時(UTC)から 25日の 18時(UTC)まで有効
西/南西の風 5kt
視程10km以上
高度1400ftの雲はほとんどない
高度1500ftの雲はほとんどない, 積乱雲.
24日の 16時(UTC)から 24日の 20時(UTC)まで一時的に
視程: 7000m
激しい雷雨, 小雨
24日の 18時(UTC)から 24日の 20時(UTC)まで徐々に
南/南東の風 4kt
高度400ftの雲はほとんどない
高度1500ftの雲はほとんどない, 積乱雲.

TAF: WBSB 241100Z 2412/2518 24005KT 9999 FEW014 FEW015CB TEMPO 2416/2420 7000 -TSRA BECMG 2418/2420 16004KT FEW004 FEW015CB

4,000以上の空港の気象観測と天気予報(METAR報とTAF報)

利用可能な観測所は地図上に黄色い丸と赤い丸で示す。

丸の上にカーソルを重ねると観測所名を参照できる。

次にクリックすると気象観測と天気予報を参照できる。

マップの切り替え:黒色「×」印の緑ボタンをクリックして拡大、「-」印の緑ボタンをクリックして縮小、緑色の三角印をクリックして隣りの地図に切り替え


METAR-TAF: